Time;durP1;ratioP1;P1;durP2;ratioP2;P2;SDS_P1;SDS_P2;PMS_P1;PMS_P2;Temp;Humidity;BMP_temperature;BMP_pressure;BME280_temperature;BME280_humidity;BME280_pressure;Samples;Min_cycle;Max_cycle;Signal;HPM_P1;HPM_P2
2023/09/30 00:00:15;;;;;;;11.68;4.95;;;;;;;;;;6096554;23;20314;-79
2023/09/30 00:02:41;;;;;;;8.82;5.00;;;;;;;;;;6095483;23;20006;-79
2023/09/30 00:05:07;;;;;;;12.82;5.53;;;;;;;;;;6097616;23;19998;-79
2023/09/30 00:07:33;;;;;;;11.55;5.55;;;;;;;;;;6096578;23;20081;-79
2023/09/30 00:09:59;;;;;;;10.70;5.70;;;;;;;;;;6099706;23;20017;-79
2023/09/30 00:12:25;;;;;;;13.18;5.53;;;;;;;;;;6100086;23;20006;-79
2023/09/30 00:14:50;;;;;;;14.05;6.10;;;;;;;;;;6100749;23;20277;-78
2023/09/30 00:17:16;;;;;;;16.30;6.30;;;;;;;;;;6097940;23;20023;-79
2023/09/30 00:19:41;;;;;;;14.57;6.60;;;;;;;;;;6097392;23;20002;-79
2023/09/30 00:22:07;;;;;;;13.70;6.03;;;;;;;;;;6095663;23;20380;-80
2023/09/30 00:24:33;;;;;;;14.20;6.07;;;;;;;;;;6095294;23;20013;-79
2023/09/30 00:26:59;;;;;;;16.60;6.75;;;;;;;;;;6095999;23;20009;-79
2023/09/30 00:29:26;;;;;;;18.42;7.05;;;;;;;;;;6096995;23;20010;-78
2023/09/30 00:31:52;;;;;;;15.85;7.55;;;;;;;;;;6097637;23;20073;-78
2023/09/30 00:34:18;;;;;;;25.15;8.75;;;;;;;;;;6097230;23;20009;-78
2023/09/30 00:36:43;;;;;;;16.98;7.32;;;;;;;;;;6094140;23;20010;-79
2023/09/30 00:39:09;;;;;;;21.90;7.93;;;;;;;;;;6070454;23;20430;-79
2023/09/30 00:41:36;;;;;;;21.23;8.77;;;;;;;;;;6094505;23;20020;-79
2023/09/30 00:44:02;;;;;;;22.92;8.75;;;;;;;;;;6095381;23;20368;-79
2023/09/30 00:46:37;;;;;;;22.05;8.38;;;;;;;;;;6093623;23;20081;-78
2023/09/30 00:49:03;;;;;;;20.50;8.23;;;;;;;;;;6093033;23;20061;-79
2023/09/30 00:51:29;;;;;;;22.48;9.43;;;;;;;;;;6094639;23;20006;-78
2023/09/30 00:53:58;;;;;;;24.33;9.30;;;;;;;;;;6093215;23;20007;-78
2023/09/30 00:56:27;;;;;;;24.17;8.35;;;;;;;;;;6094634;23;20117;-78
2023/09/30 00:58:53;;;;;;;23.58;9.25;;;;;;;;;;6092922;23;20010;-79
2023/09/30 01:01:20;;;;;;;24.83;9.85;;;;;;;;;;6094425;23;20006;-79
2023/09/30 01:03:46;;;;;;;25.67;9.88;;;;;;;;;;6092574;23;20018;-79
2023/09/30 01:06:12;;;;;;;30.98;9.77;;;;;;;;;;6094620;23;20006;-79
2023/09/30 01:08:38;;;;;;;27.50;9.93;;;;;;;;;;6090905;23;20069;-79
2023/09/30 01:11:04;;;;;;;31.73;9.98;;;;;;;;;;6094660;23;20006;-79
2023/09/30 01:13:37;;;;;;;33.42;10.65;;;;;;;;;;6094224;23;20029;-79
2023/09/30 01:16:11;;;;;;;29.52;10.35;;;;;;;;;;6087853;23;20023;-79
2023/09/30 01:18:38;;;;;;;26.58;10.73;;;;;;;;;;6064104;23;20011;-79
2023/09/30 01:21:05;;;;;;;33.13;10.50;;;;;;;;;;6063906;23;20129;-78
2023/09/30 01:23:32;;;;;;;28.92;11.07;;;;;;;;;;6063803;23;20009;-78
2023/09/30 01:26:12;;;;;;;33.08;10.98;;;;;;;;;;6064693;23;20010;-79
2023/09/30 01:28:38;;;;;;;28.50;9.80;;;;;;;;;;6063795;23;20090;-79
2023/09/30 01:31:05;;;;;;;30.77;11.43;;;;;;;;;;6065281;23;20013;-79
2023/09/30 01:33:31;;;;;;;32.85;10.23;;;;;;;;;;6040147;23;20325;-79
2023/09/30 01:35:57;;;;;;;25.75;9.95;;;;;;;;;;6087951;23;20013;-78
2023/09/30 01:38:23;;;;;;;29.77;10.18;;;;;;;;;;6064159;23;20044;-78
2023/09/30 01:40:50;;;;;;;37.58;11.63;;;;;;;;;;6065591;23;20333;-79
2023/09/30 01:43:16;;;;;;;34.28;11.80;;;;;;;;;;6066624;23;20079;-79
2023/09/30 01:45:42;;;;;;;32.60;10.82;;;;;;;;;;6045693;23;20413;-80
2023/09/30 01:48:12;;;;;;;44.22;11.88;;;;;;;;;;6074045;23;20065;-79
2023/09/30 01:50:38;;;;;;;32.33;11.02;;;;;;;;;;6073930;23;20002;-79
2023/09/30 01:53:09;;;;;;;28.77;11.00;;;;;;;;;;6072451;23;20009;-78
2023/09/30 01:55:35;;;;;;;35.72;11.90;;;;;;;;;;6065170;23;20034;-78
2023/09/30 01:58:01;;;;;;;32.50;11.25;;;;;;;;;;6065805;23;20030;-79
2023/09/30 02:00:28;;;;;;;37.50;11.95;;;;;;;;;;6063704;23;20034;-78
2023/09/30 02:02:55;;;;;;;31.27;11.23;;;;;;;;;;6040363;23;20050;-78
2023/09/30 02:05:22;;;;;;;34.03;11.10;;;;;;;;;;6065194;23;20015;-79
2023/09/30 02:07:48;;;;;;;33.88;11.90;;;;;;;;;;6063750;23;20013;-78
2023/09/30 02:10:14;;;;;;;35.10;11.25;;;;;;;;;;6065592;23;20011;-79
2023/09/30 02:12:39;;;;;;;36.67;11.40;;;;;;;;;;6065687;23;20536;-80
2023/09/30 02:15:07;;;;;;;35.80;12.10;;;;;;;;;;6087650;23;20181;-80
2023/09/30 02:17:32;;;;;;;35.08;11.95;;;;;;;;;;6088657;23;20022;-79
2023/09/30 02:19:58;;;;;;;33.53;11.10;;;;;;;;;;6092857;23;20121;-78
2023/09/30 02:22:24;;;;;;;31.65;11.30;;;;;;;;;;6094825;23;20037;-79
2023/09/30 02:24:50;;;;;;;33.33;10.38;;;;;;;;;;6092388;23;20033;-79
2023/09/30 02:27:16;;;;;;;35.95;12.88;;;;;;;;;;6091773;23;20049;-78
2023/09/30 02:29:41;;;;;;;33.13;11.50;;;;;;;;;;6093336;23;20577;-78
2023/09/30 02:32:09;;;;;;;32.17;11.40;;;;;;;;;;6092016;23;20101;-78
2023/09/30 02:34:35;;;;;;;26.50;10.65;;;;;;;;;;6091870;23;20010;-79
2023/09/30 02:37:01;;;;;;;31.02;10.55;;;;;;;;;;6093826;23;20061;-78
2023/09/30 02:39:27;;;;;;;34.33;10.55;;;;;;;;;;6091379;23;20006;-77
2023/09/30 02:41:52;;;;;;;34.20;10.98;;;;;;;;;;6091782;23;20014;-77
2023/09/30 02:44:19;;;;;;;36.20;10.70;;;;;;;;;;6093892;23;20017;-78
2023/09/30 02:46:44;;;;;;;31.50;11.60;;;;;;;;;;6092301;23;20002;-78
2023/09/30 02:49:10;;;;;;;33.35;10.45;;;;;;;;;;6091982;23;20029;-78
2023/09/30 02:51:35;;;;;;;30.95;10.57;;;;;;;;;;6093074;23;20096;-78
2023/09/30 02:54:02;;;;;;;30.50;9.77;;;;;;;;;;6091881;23;20009;-79
2023/09/30 02:56:30;;;;;;;33.92;10.95;;;;;;;;;;6091468;23;20081;-79
2023/09/30 02:58:56;;;;;;;33.80;10.52;;;;;;;;;;6091337;23;20046;-79
2023/09/30 03:01:21;;;;;;;30.75;10.93;;;;;;;;;;6093382;23;20073;-78
2023/09/30 03:03:47;;;;;;;27.42;10.07;;;;;;;;;;6094069;23;20026;-79
2023/09/30 03:06:14;;;;;;;29.92;9.60;;;;;;;;;;6092850;23;20010;-79
2023/09/30 03:08:40;;;;;;;34.55;10.48;;;;;;;;;;6068400;23;20050;-79
2023/09/30 03:11:07;;;;;;;29.33;10.02;;;;;;;;;;6093765;23;20011;-79
2023/09/30 03:13:33;;;;;;;33.90;10.43;;;;;;;;;;6091761;23;20026;-78
2023/09/30 03:15:58;;;;;;;29.40;10.02;;;;;;;;;;6100130;23;20055;-78
2023/09/30 03:18:26;;;;;;;35.60;10.63;;;;;;;;;;6096251;23;20013;-79
2023/09/30 03:21:08;;;;;;;36.13;10.80;;;;;;;;;;6096905;23;20048;-79
2023/09/30 03:23:33;;;;;;;32.45;11.25;;;;;;;;;;6096642;23;20010;-80
2023/09/30 03:25:59;;;;;;;33.97;10.52;;;;;;;;;;6096472;23;20055;-78
2023/09/30 03:28:26;;;;;;;28.15;10.05;;;;;;;;;;6096472;23;20002;-78
2023/09/30 03:30:52;;;;;;;34.88;11.30;;;;;;;;;;6120434;23;20347;-79
2023/09/30 03:33:18;;;;;;;29.45;9.75;;;;;;;;;;6120916;23;20016;-78
2023/09/30 03:35:44;;;;;;;28.98;9.57;;;;;;;;;;6096930;23;20435;-79
2023/09/30 03:38:12;;;;;;;30.98;10.52;;;;;;;;;;6123026;23;20053;-78
2023/09/30 03:40:39;;;;;;;29.98;10.85;;;;;;;;;;6096537;23;20690;-78
2023/09/30 03:43:05;;;;;;;32.03;10.00;;;;;;;;;;6123296;23;20028;-79
2023/09/30 03:45:34;;;;;;;31.92;10.63;;;;;;;;;;6122801;23;20566;-79
2023/09/30 03:48:02;;;;;;;28.15;10.10;;;;;;;;;;6122841;23;20010;-78
2023/09/30 03:50:29;;;;;;;29.33;9.95;;;;;;;;;;6122606;23;20006;-78
2023/09/30 03:53:02;;;;;;;32.90;9.73;;;;;;;;;;6096533;23;20013;-78
2023/09/30 03:55:29;;;;;;;28.77;10.05;;;;;;;;;;6096576;23;20316;-79
2023/09/30 03:57:55;;;;;;;29.63;10.20;;;;;;;;;;6122779;23;20026;-79
2023/09/30 04:00:21;;;;;;;28.92;9.88;;;;;;;;;;6096545;23;20017;-78
2023/09/30 04:02:58;;;;;;;30.02;11.25;;;;;;;;;;6096930;23;20025;-79
2023/09/30 04:05:29;;;;;;;31.73;9.75;;;;;;;;;;6097397;23;20064;-79
2023/09/30 04:07:56;;;;;;;33.03;9.98;;;;;;;;;;6098081;23;20006;-79
2023/09/30 04:10:22;;;;;;;28.65;9.90;;;;;;;;;;6125775;23;20148;-79
2023/09/30 04:12:49;;;;;;;28.17;8.75;;;;;;;;;;6126557;23;20006;-79
2023/09/30 04:15:15;;;;;;;31.38;9.68;;;;;;;;;;6127378;23;20350;-79
2023/09/30 04:17:41;;;;;;;26.65;10.27;;;;;;;;;;6091380;23;20066;-77
2023/09/30 04:20:10;;;;;;;32.08;10.70;;;;;;;;;;6070192;23;20509;-78
2023/09/30 04:22:36;;;;;;;28.98;9.73;;;;;;;;;;6069643;23;20046;-77
2023/09/30 04:25:08;;;;;;;28.92;9.15;;;;;;;;;;6073297;23;20061;-79
2023/09/30 04:27:34;;;;;;;27.02;9.07;;;;;;;;;;6096560;23;20018;-78
2023/09/30 04:30:00;;;;;;;27.67;9.18;;;;;;;;;;6084072;23;20078;-78
2023/09/30 04:32:27;;;;;;;29.42;9.70;;;;;;;;;;6085332;23;20010;-77
2023/09/30 04:34:53;;;;;;;26.15;8.73;;;;;;;;;;6084588;23;20417;-79
2023/09/30 04:37:18;;;;;;;23.45;8.35;;;;;;;;;;6075767;23;20085;-80
2023/09/30 04:39:44;;;;;;;23.05;7.82;;;;;;;;;;6075691;23;20103;-79
2023/09/30 04:42:11;;;;;;;24.67;7.82;;;;;;;;;;6076553;23;20503;-79
2023/09/30 04:44:38;;;;;;;16.90;6.50;;;;;;;;;;6077787;23;20006;-79
2023/09/30 04:47:04;;;;;;;23.02;7.03;;;;;;;;;;6066356;23;20035;-80
2023/09/30 04:49:30;;;;;;;19.75;6.85;;;;;;;;;;6065615;23;20058;-79
2023/09/30 04:51:56;;;;;;;14.88;5.53;;;;;;;;;;6066827;23;20071;-79
2023/09/30 04:54:21;;;;;;;11.98;4.68;;;;;;;;;;6064741;23;20046;-79
2023/09/30 04:56:47;;;;;;;11.38;4.50;;;;;;;;;;6088230;23;20413;-77
2023/09/30 04:59:13;;;;;;;11.75;3.92;;;;;;;;;;6066471;23;20093;-78
2023/09/30 05:01:39;;;;;;;6.65;2.88;;;;;;;;;;6066150;23;20013;-79
2023/09/30 05:04:04;;;;;;;6.40;2.90;;;;;;;;;;6066271;23;20007;-78
2023/09/30 05:06:32;;;;;;;5.80;2.42;;;;;;;;;;6065759;23;20006;-78
2023/09/30 05:08:58;;;;;;;4.97;1.38;;;;;;;;;;6088230;23;20318;-78
2023/09/30 05:11:24;;;;;;;4.65;1.40;;;;;;;;;;6064095;23;20039;-80
2023/09/30 05:13:50;;;;;;;2.78;1.17;;;;;;;;;;6066078;23;19999;-79
2023/09/30 05:16:17;;;;;;;5.40;1.20;;;;;;;;;;6073849;23;20405;-79
2023/09/30 05:18:43;;;;;;;3.40;0.82;;;;;;;;;;6092903;23;20066;-77
2023/09/30 05:21:10;;;;;;;1.33;0.60;;;;;;;;;;6092729;23;20062;-79
2023/09/30 05:23:37;;;;;;;2.90;1.17;;;;;;;;;;6092469;23;20146;-79
2023/09/30 05:26:02;;;;;;;1.90;0.88;;;;;;;;;;6092549;23;20016;-78
2023/09/30 05:28:28;;;;;;;0.95;0.77;;;;;;;;;;6094342;23;20006;-79
2023/09/30 05:30:53;;;;;;;9.38;1.40;;;;;;;;;;6092430;23;20069;-78
2023/09/30 05:33:19;;;;;;;1.70;0.90;;;;;;;;;;6092506;23;20011;-80
2023/09/30 05:35:47;;;;;;;2.08;0.90;;;;;;;;;;6092341;23;20408;-79
2023/09/30 05:38:13;;;;;;;1.88;0.90;;;;;;;;;;6094479;23;20006;-77
2023/09/30 05:40:38;;;;;;;1.67;0.70;;;;;;;;;;6092806;23;20030;-79
2023/09/30 05:43:05;;;;;;;4.78;1.63;;;;;;;;;;6093595;23;20009;-79
2023/09/30 05:45:35;;;;;;;4.55;1.15;;;;;;;;;;6093479;23;20006;-78
2023/09/30 05:48:07;;;;;;;1.33;0.80;;;;;;;;;;6092478;23;20061;-79
2023/09/30 05:50:34;;;;;;;1.67;0.90;;;;;;;;;;6092068;23;20003;-79
2023/09/30 05:53:00;;;;;;;2.40;0.80;;;;;;;;;;6094273;23;20308;-79
2023/09/30 05:55:25;;;;;;;4.45;1.33;;;;;;;;;;6094245;23;20006;-78
2023/09/30 05:57:54;;;;;;;3.67;1.27;;;;;;;;;;6093602;23;20006;-78
2023/09/30 06:00:37;;;;;;;3.05;1.67;;;;;;;;;;6092579;23;20002;-79
2023/09/30 06:03:06;;;;;;;6.82;1.63;;;;;;;;;;6092717;23;20017;-78
2023/09/30 06:05:32;;;;;;;4.93;1.70;;;;;;;;;;6094110;23;20009;-78
2023/09/30 06:08:00;;;;;;;3.75;1.63;;;;;;;;;;6092407;23;20336;-79
2023/09/30 06:10:25;;;;;;;5.10;1.95;;;;;;;;;;6094074;23;20016;-78
2023/09/30 06:12:55;;;;;;;6.93;2.15;;;;;;;;;;6094044;23;20022;-78
2023/09/30 06:15:21;;;;;;;2.22;1.40;;;;;;;;;;6094636;23;20034;-78
2023/09/30 06:17:51;;;;;;;11.90;2.72;;;;;;;;;;6092722;23;20037;-78
2023/09/30 06:20:22;;;;;;;3.50;2.00;;;;;;;;;;6093135;23;20017;-80
2023/09/30 06:23:09;;;;;;;5.68;1.70;;;;;;;;;;6095403;23;20014;-79
2023/09/30 06:25:35;;;;;;;4.45;1.60;;;;;;;;;;6093355;23;20006;-78
2023/09/30 06:28:01;;;;;;;5.93;1.90;;;;;;;;;;6094788;23;20006;-79
2023/09/30 06:30:29;;;;;;;15.68;2.92;;;;;;;;;;6094012;23;20022;-79
2023/09/30 06:32:59;;;;;;;5.55;1.63;;;;;;;;;;6094287;23;20006;-79
2023/09/30 06:35:26;;;;;;;4.75;1.67;;;;;;;;;;6092812;23;20343;-80
2023/09/30 06:37:51;;;;;;;6.10;2.08;;;;;;;;;;6094498;23;20037;-78
2023/09/30 06:40:18;;;;;;;6.82;2.88;;;;;;;;;;6092682;23;20010;-79
2023/09/30 06:42:44;;;;;;;5.47;1.70;;;;;;;;;;6093861;23;20021;-79
2023/09/30 06:45:10;;;;;;;7.85;1.73;;;;;;;;;;6095890;23;20328;-79
2023/09/30 06:47:51;;;;;;;4.90;1.55;;;;;;;;;;6096104;23;20013;-80
2023/09/30 06:50:18;;;;;;;10.48;1.65;;;;;;;;;;6096737;23;20010;-78
2023/09/30 06:52:49;;;;;;;6.80;1.70;;;;;;;;;;6097895;23;20066;-80
2023/09/30 06:55:14;;;;;;;4.75;2.05;;;;;;;;;;6104602;23;20034;-79
2023/09/30 06:57:43;;;;;;;4.80;2.45;;;;;;;;;;6104147;23;20309;-80
2023/09/30 07:00:11;;;;;;;8.18;2.58;;;;;;;;;;6102174;23;20118;-80
2023/09/30 07:02:38;;;;;;;4.75;1.83;;;;;;;;;;6112640;23;20018;-78
2023/09/30 07:05:11;;;;;;;5.90;2.30;;;;;;;;;;6112755;23;20007;-79
2023/09/30 07:07:37;;;;;;;8.82;2.05;;;;;;;;;;6096602;23;20011;-79
2023/09/30 07:10:04;;;;;;;8.82;2.50;;;;;;;;;;6095748;23;20033;-79
2023/09/30 07:12:31;;;;;;;9.35;2.10;;;;;;;;;;6095537;23;20026;-79
2023/09/30 07:14:57;;;;;;;4.80;1.80;;;;;;;;;;6070193;23;20021;-79
2023/09/30 07:17:23;;;;;;;6.50;1.80;;;;;;;;;;6120256;23;20009;-81
2023/09/30 07:19:50;;;;;;;7.05;1.92;;;;;;;;;;6125439;23;20002;-79
2023/09/30 07:22:16;;;;;;;8.70;1.60;;;;;;;;;;6124806;23;20006;-78
2023/09/30 07:24:42;;;;;;;5.00;2.00;;;;;;;;;;6097457;23;20276;-80
2023/09/30 07:27:09;;;;;;;5.50;2.00;;;;;;;;;;6097584;23;19998;-79
2023/09/30 07:29:34;;;;;;;7.40;2.00;;;;;;;;;;6123934;23;20307;-81
2023/09/30 07:32:00;;;;;;;8.20;1.90;;;;;;;;;;6097364;23;20006;-80
2023/09/30 07:34:26;;;;;;;7.82;1.55;;;;;;;;;;6122983;23;20435;-79
2023/09/30 07:36:51;;;;;;;15.27;2.05;;;;;;;;;;6122993;23;20006;-80
2023/09/30 07:39:17;;;;;;;8.73;1.83;;;;;;;;;;6096946;23;20014;-79
2023/09/30 07:41:43;;;;;;;9.90;2.05;;;;;;;;;;6123080;23;20009;-81
2023/09/30 07:44:09;;;;;;;6.38;3.17;;;;;;;;;;6096661;23;20006;-80
2023/09/30 07:46:35;;;;;;;10.85;2.15;;;;;;;;;;6098926;23;20077;-81
2023/09/30 07:49:03;;;;;;;6.25;1.63;;;;;;;;;;6099025;23;20013;-80
2023/09/30 07:51:29;;;;;;;6.20;1.83;;;;;;;;;;6125280;23;20012;-79
2023/09/30 07:53:55;;;;;;;13.82;2.90;;;;;;;;;;6098922;23;20304;-80
2023/09/30 07:56:21;;;;;;;9.18;2.30;;;;;;;;;;6098054;23;20010;-78
2023/09/30 07:58:48;;;;;;;10.32;2.20;;;;;;;;;;6097651;23;20068;-79
2023/09/30 08:01:14;;;;;;;6.43;2.00;;;;;;;;;;6098717;23;20017;-79
2023/09/30 08:03:40;;;;;;;8.20;2.00;;;;;;;;;;6098668;23;20009;-78
2023/09/30 08:06:08;;;;;;;4.28;1.38;;;;;;;;;;6099183;23;20695;-80
2023/09/30 08:08:35;;;;;;;14.73;2.22;;;;;;;;;;6098285;23;20090;-79
2023/09/30 08:11:01;;;;;;;3.85;1.60;;;;;;;;;;6123648;23;20002;-78
2023/09/30 08:13:27;;;;;;;9.15;1.95;;;;;;;;;;6123194;23;20428;-79
2023/09/30 08:15:53;;;;;;;5.55;2.10;;;;;;;;;;6123526;23;20343;-79
2023/09/30 08:18:19;;;;;;;8.60;2.08;;;;;;;;;;6098174;23;20037;-80
2023/09/30 08:20:44;;;;;;;12.00;2.40;;;;;;;;;;6097774;23;20013;-80
2023/09/30 08:23:11;;;;;;;10.70;2.15;;;;;;;;;;6098355;23;20017;-80
2023/09/30 08:25:37;;;;;;;9.40;2.58;;;;;;;;;;6074258;23;20010;-78
2023/09/30 08:28:04;;;;;;;8.68;2.40;;;;;;;;;;6124325;23;20052;-79
2023/09/30 08:30:30;;;;;;;20.60;3.83;;;;;;;;;;6098592;23;20407;-77
2023/09/30 08:32:56;;;;;;;6.47;1.98;;;;;;;;;;6124602;23;20005;-81
2023/09/30 08:35:22;;;;;;;6.47;1.77;;;;;;;;;;6100960;23;20428;-80
2023/09/30 08:37:48;;;;;;;13.43;2.33;;;;;;;;;;6099426;23;20415;-79
2023/09/30 08:40:13;;;;;;;7.78;1.85;;;;;;;;;;6125467;23;20002;-80
2023/09/30 08:42:39;;;;;;;7.85;2.42;;;;;;;;;;6127611;23;20002;-79
2023/09/30 08:45:09;;;;;;;7.35;2.55;;;;;;;;;;6104331;23;20010;-81
2023/09/30 08:47:35;;;;;;;7.53;2.28;;;;;;;;;;6093435;23;20034;-79
2023/09/30 08:50:08;;;;;;;8.18;2.63;;;;;;;;;;6119593;23;20005;-78
2023/09/30 08:52:34;;;;;;;8.82;2.63;;;;;;;;;;6107261;23;20097;-80
2023/09/30 08:55:01;;;;;;;6.70;1.85;;;;;;;;;;6124785;23;20081;-78
2023/09/30 08:57:28;;;;;;;7.13;2.42;;;;;;;;;;6097848;23;20010;-79
2023/09/30 08:59:54;;;;;;;15.57;3.75;;;;;;;;;;6123817;23;20018;-79
2023/09/30 09:02:19;;;;;;;8.20;2.40;;;;;;;;;;6097886;23;20156;-78
2023/09/30 09:04:49;;;;;;;9.48;2.65;;;;;;;;;;6097907;23;20455;-80
2023/09/30 09:07:15;;;;;;;6.05;1.83;;;;;;;;;;6098096;23;20101;-80
2023/09/30 09:09:40;;;;;;;7.55;2.33;;;;;;;;;;6097903;23;20080;-79
2023/09/30 09:12:09;;;;;;;9.63;2.00;;;;;;;;;;6097477;23;20002;-79
2023/09/30 09:14:39;;;;;;;6.70;2.33;;;;;;;;;;6124149;23;20001;-79
2023/09/30 09:17:07;;;;;;;5.30;1.83;;;;;;;;;;6098397;23;20010;-78
2023/09/30 09:19:34;;;;;;;11.40;1.92;;;;;;;;;;6097824;23;20006;-77
2023/09/30 09:22:04;;;;;;;10.02;2.22;;;;;;;;;;6097720;23;20006;-79
2023/09/30 09:24:39;;;;;;;7.32;1.75;;;;;;;;;;6098212;23;20411;-79
2023/09/30 09:27:07;;;;;;;8.60;2.17;;;;;;;;;;6124209;23;20085;-78
2023/09/30 09:29:34;;;;;;;7.82;1.98;;;;;;;;;;6122893;23;20387;-79
2023/09/30 09:32:13;;;;;;;6.75;1.73;;;;;;;;;;6098381;23;20010;-79
2023/09/30 09:34:40;;;;;;;7.05;1.90;;;;;;;;;;6098339;23;20130;-79
2023/09/30 09:37:17;;;;;;;9.70;2.20;;;;;;;;;;6124001;23;20033;-79
2023/09/30 09:40:10;;;;;;;11.13;2.50;;;;;;;;;;6097379;23;20013;-81
2023/09/30 09:42:37;;;;;;;9.75;1.98;;;;;;;;;;6094305;23;20013;-80
2023/09/30 09:45:05;;;;;;;12.35;2.10;;;;;;;;;;6097421;23;20690;-80
2023/09/30 09:47:32;;;;;;;7.00;1.77;;;;;;;;;;6124233;23;19998;-79
2023/09/30 09:49:58;;;;;;;5.78;2.10;;;;;;;;;;6097358;23;20113;-80
2023/09/30 09:52:25;;;;;;;9.43;2.42;;;;;;;;;;6097492;23;20347;-80
2023/09/30 09:54:51;;;;;;;9.60;2.17;;;;;;;;;;6097344;23;20493;-80
2023/09/30 09:57:20;;;;;;;8.88;2.47;;;;;;;;;;6123666;23;20041;-80
2023/09/30 09:59:49;;;;;;;6.05;1.88;;;;;;;;;;6123533;23;20451;-80
2023/09/30 10:02:19;;;;;;;14.02;3.28;;;;;;;;;;6123189;23;20081;-79
2023/09/30 10:04:46;;;;;;;9.45;2.53;;;;;;;;;;6122791;23;20073;-78
2023/09/30 10:07:37;;;;;;;11.25;2.47;;;;;;;;;;6124026;23;19998;-79
2023/09/30 10:10:08;;;;;;;5.80;2.27;;;;;;;;;;6100149;23;20081;-79
2023/09/30 10:12:41;;;;;;;12.65;2.25;;;;;;;;;;6123556;23;20115;-80
2023/09/30 10:15:25;;;;;;;10.55;2.67;;;;;;;;;;6123490;23;20102;-79
2023/09/30 10:18:16;;;;;;;8.57;2.42;;;;;;;;;;6096861;23;20125;-79
2023/09/30 10:20:48;;;;;;;6.43;2.03;;;;;;;;;;6117350;23;20006;-80
2023/09/30 10:23:33;;;;;;;7.05;2.08;;;;;;;;;;6123071;23;20432;-79
2023/09/30 10:26:07;;;;;;;10.25;2.22;;;;;;;;;;6096552;23;20317;-79
2023/09/30 10:28:49;;;;;;;8.60;1.90;;;;;;;;;;6122875;23;20008;-79
2023/09/30 10:31:19;;;;;;;8.52;2.30;;;;;;;;;;6123614;23;20006;-78
2023/09/30 10:34:10;;;;;;;8.38;2.63;;;;;;;;;;6123618;23;20002;-79
2023/09/30 10:36:40;;;;;;;7.18;2.28;;;;;;;;;;6093048;23;20006;-78
2023/09/30 10:39:13;;;;;;;7.45;2.35;;;;;;;;;;6097777;23;20005;-78
2023/09/30 10:41:44;;;;;;;6.75;2.20;;;;;;;;;;6097546;23;20065;-79
2023/09/30 10:44:38;;;;;;;7.78;2.22;;;;;;;;;;6097127;23;20010;-79
2023/09/30 10:47:24;;;;;;;6.20;2.30;;;;;;;;;;6116902;23;20136;-78
2023/09/30 10:49:51;;;;;;;13.15;2.10;;;;;;;;;;6097496;23;20100;-79
2023/09/30 10:52:23;;;;;;;11.82;2.50;;;;;;;;;;6123705;23;20486;-79
2023/09/30 10:54:49;;;;;;;7.55;1.90;;;;;;;;;;6123507;23;20009;-78
2023/09/30 10:57:27;;;;;;;8.98;2.33;;;;;;;;;;6122834;23;20014;-80
2023/09/30 11:00:11;;;;;;;13.40;2.72;;;;;;;;;;6122962;23;20057;-79
2023/09/30 11:02:48;;;;;;;10.85;3.22;;;;;;;;;;6096752;23;20009;-79
2023/09/30 11:05:14;;;;;;;5.18;1.67;;;;;;;;;;6097477;23;20016;-79
2023/09/30 11:07:42;;;;;;;5.82;2.00;;;;;;;;;;6097350;23;20029;-80
2023/09/30 11:10:07;;;;;;;4.72;1.60;;;;;;;;;;6096797;23;20350;-79
2023/09/30 11:12:34;;;;;;;6.07;2.38;;;;;;;;;;6097661;23;20010;-79
2023/09/30 11:15:01;;;;;;;4.55;1.48;;;;;;;;;;6097627;23;20017;-79
2023/09/30 11:17:27;;;;;;;10.00;2.05;;;;;;;;;;6097615;23;20101;-79
2023/09/30 11:19:54;;;;;;;7.40;1.63;;;;;;;;;;6097376;23;20057;-80
2023/09/30 11:22:21;;;;;;;9.35;2.15;;;;;;;;;;6098376;23;20092;-80
2023/09/30 11:24:47;;;;;;;4.78;2.00;;;;;;;;;;6098248;23;20096;-80
2023/09/30 11:27:13;;;;;;;9.15;2.22;;;;;;;;;;6073558;23;20006;-78
2023/09/30 11:29:49;;;;;;;8.10;1.80;;;;;;;;;;6123299;23;20053;-77
2023/09/30 11:32:26;;;;;;;8.30;2.28;;;;;;;;;;6123560;23;20003;-79
2023/09/30 11:34:53;;;;;;;6.78;2.22;;;;;;;;;;6123879;23;20006;-80
2023/09/30 11:37:21;;;;;;;8.10;1.70;;;;;;;;;;6124981;23;20093;-82
2023/09/30 11:39:47;;;;;;;6.88;2.08;;;;;;;;;;6099379;23;20014;-80
2023/09/30 11:42:17;;;;;;;9.98;1.98;;;;;;;;;;6098971;23;20148;-81
2023/09/30 11:44:47;;;;;;;7.65;1.67;;;;;;;;;;6099710;23;20006;-80
2023/09/30 11:47:14;;;;;;;7.65;1.90;;;;;;;;;;6125009;23;20060;-81
2023/09/30 11:49:49;;;;;;;4.45;1.50;;;;;;;;;;6101545;23;20110;-80
2023/09/30 11:52:15;;;;;;;6.57;1.70;;;;;;;;;;6079202;23;20064;-81
2023/09/30 11:54:45;;;;;;;7.50;2.22;;;;;;;;;;6134158;23;20017;-80
2023/09/30 11:57:21;;;;;;;6.82;1.85;;;;;;;;;;6142406;23;20025;-78
2023/09/30 11:59:47;;;;;;;6.05;1.90;;;;;;;;;;6114135;23;20006;-80
2023/09/30 12:02:19;;;;;;;8.57;2.60;;;;;;;;;;6135696;23;20005;-79
2023/09/30 12:04:49;;;;;;;7.78;1.95;;;;;;;;;;6077049;23;20010;-80
2023/09/30 12:07:15;;;;;;;5.40;2.40;;;;;;;;;;6099663;23;20001;-80
2023/09/30 12:09:41;;;;;;;7.00;2.28;;;;;;;;;;6098597;23;20566;-78
2023/09/30 12:12:09;;;;;;;6.53;1.88;;;;;;;;;;6096293;23;20324;-81
2023/09/30 12:14:34;;;;;;;6.22;2.00;;;;;;;;;;6123428;23;20447;-80
2023/09/30 12:17:01;;;;;;;13.52;2.15;;;;;;;;;;6096690;23;20018;-79
2023/09/30 12:19:27;;;;;;;5.82;2.00;;;;;;;;;;6122511;23;20017;-80
2023/09/30 12:21:52;;;;;;;8.02;1.88;;;;;;;;;;6096592;23;20010;-77
2023/09/30 12:24:23;;;;;;;9.18;1.77;;;;;;;;;;6123944;23;20502;-81
2023/09/30 12:26:51;;;;;;;5.35;1.80;;;;;;;;;;6097790;23;20687;-80
2023/09/30 12:29:22;;;;;;;6.18;1.50;;;;;;;;;;6123720;23;20009;-82
2023/09/30 12:31:49;;;;;;;8.77;2.33;;;;;;;;;;6125064;23;20029;-81
2023/09/30 12:34:16;;;;;;;4.25;1.90;;;;;;;;;;6124563;23;20017;-79
2023/09/30 12:36:43;;;;;;;4.45;1.75;;;;;;;;;;6097912;23;20061;-79
2023/09/30 12:39:13;;;;;;;9.52;2.30;;;;;;;;;;6124372;23;20427;-79
2023/09/30 12:41:42;;;;;;;9.45;2.00;;;;;;;;;;6098066;23;20010;-80
2023/09/30 12:44:09;;;;;;;14.13;2.40;;;;;;;;;;6124603;23;20009;-81
2023/09/30 12:46:36;;;;;;;10.15;1.80;;;;;;;;;;6074786;23;20040;-81
2023/09/30 12:49:04;;;;;;;12.60;2.92;;;;;;;;;;6074896;23;20013;-79
2023/09/30 12:51:30;;;;;;;7.93;2.22;;;;;;;;;;6098765;23;20501;-81
2023/09/30 12:53:58;;;;;;;7.22;1.83;;;;;;;;;;6099010;23;20013;-79
2023/09/30 12:56:24;;;;;;;8.13;2.45;;;;;;;;;;6099002;23;20013;-80
2023/09/30 12:58:50;;;;;;;10.00;2.42;;;;;;;;;;6127170;23;20372;-81
2023/09/30 13:01:18;;;;;;;11.90;6.93;;;;;;;;;;6107706;23;19998;-79
2023/09/30 13:03:44;;;;;;;3.30;1.95;;;;;;;;;;6145589;23;20009;-80
2023/09/30 13:06:10;;;;;;;5.85;1.80;;;;;;;;;;6090986;23;20013;-80
2023/09/30 13:08:36;;;;;;;5.47;1.65;;;;;;;;;;6113534;23;20013;-80
2023/09/30 13:11:02;;;;;;;5.72;1.70;;;;;;;;;;6098800;23;20006;-80
2023/09/30 13:13:30;;;;;;;8.27;2.50;;;;;;;;;;6098646;23;20052;-80
2023/09/30 13:15:57;;;;;;;3.15;1.75;;;;;;;;;;6098516;23;20018;-80
2023/09/30 13:18:23;;;;;;;8.52;1.77;;;;;;;;;;6098360;23;20010;-80
2023/09/30 13:20:48;;;;;;;8.15;2.45;;;;;;;;;;6136203;23;20006;-79
2023/09/30 13:23:14;;;;;;;14.27;3.00;;;;;;;;;;6135157;23;20001;-83
2023/09/30 13:25:40;;;;;;;6.28;1.52;;;;;;;;;;6105851;23;20006;-80
2023/09/30 13:28:07;;;;;;;6.97;1.73;;;;;;;;;;6104107;23;20104;-79
2023/09/30 13:30:33;;;;;;;9.15;1.88;;;;;;;;;;6099670;23;20005;-80
2023/09/30 13:32:59;;;;;;;7.72;2.15;;;;;;;;;;6098989;23;20014;-79
2023/09/30 13:35:25;;;;;;;6.18;1.60;;;;;;;;;;6126012;23;20001;-80
2023/09/30 13:37:50;;;;;;;10.70;1.92;;;;;;;;;;6099472;23;20006;-79
2023/09/30 13:40:17;;;;;;;7.57;1.77;;;;;;;;;;6099849;23;20033;-78
2023/09/30 13:42:44;;;;;;;6.05;1.73;;;;;;;;;;6126260;23;20013;-80
2023/09/30 13:45:10;;;;;;;14.05;2.15;;;;;;;;;;6101590;23;20089;-82
2023/09/30 13:47:37;;;;;;;8.85;2.10;;;;;;;;;;6102183;23;20006;-80
2023/09/30 13:50:04;;;;;;;5.82;1.77;;;;;;;;;;6128329;23;20017;-80
2023/09/30 13:52:31;;;;;;;12.38;2.10;;;;;;;;;;6128423;23;20032;-82
2023/09/30 13:54:57;;;;;;;3.92;1.40;;;;;;;;;;6130703;23;20009;-81
2023/09/30 13:57:22;;;;;;;5.72;1.73;;;;;;;;;;6133036;23;20103;-79
2023/09/30 13:59:48;;;;;;;8.68;2.40;;;;;;;;;;6140354;23;20356;-80
2023/09/30 14:02:14;;;;;;;6.50;1.65;;;;;;;;;;6140902;23;20088;-80
2023/09/30 14:04:40;;;;;;;7.93;2.10;;;;;;;;;;6114327;23;20010;-79
2023/09/30 14:07:07;;;;;;;10.05;2.45;;;;;;;;;;6140690;23;20010;-78
2023/09/30 14:09:33;;;;;;;4.22;1.77;;;;;;;;;;6118906;23;20017;-80
2023/09/30 14:11:59;;;;;;;10.05;1.90;;;;;;;;;;6117168;23;20010;-80
2023/09/30 14:14:26;;;;;;;6.55;1.98;;;;;;;;;;6140522;23;20029;-81
2023/09/30 14:16:52;;;;;;;8.73;2.03;;;;;;;;;;6102910;23;20020;-81
2023/09/30 14:19:17;;;;;;;8.95;1.70;;;;;;;;;;6133917;23;20006;-80
2023/09/30 14:21:43;;;;;;;4.07;1.80;;;;;;;;;;6119370;23;19993;-79
2023/09/30 14:24:10;;;;;;;6.18;2.28;;;;;;;;;;6144432;23;20001;-81
2023/09/30 14:26:36;;;;;;;4.05;2.08;;;;;;;;;;6131078;23;20320;-80
2023/09/30 14:29:03;;;;;;;10.13;2.20;;;;;;;;;;6101820;23;20002;-80
2023/09/30 14:31:29;;;;;;;9.60;2.20;;;;;;;;;;6126156;23;20006;-80
2023/09/30 14:33:55;;;;;;;6.45;1.67;;;;;;;;;;6123568;23;20014;-75
2023/09/30 14:36:22;;;;;;;3.70;1.55;;;;;;;;;;6096971;23;20536;-75
2023/09/30 14:38:49;;;;;;;7.80;2.00;;;;;;;;;;6096866;23;20028;-76